Wahatoya, Colorado
Current Conditions -  °F | °C
As of 5:12 AM on Friday 24 Oct 2014 (Local Time) from KVTP Reporting Station
Clear Clear  
Wind Chill: 32°   Ceiling: Unl
Heat Index: 39°   Visibility: 10mi
Dew Point: 28°   Wind: 13mph
Humidity: 65%   Direction: 190°S
Pressure: 30.44"   Gusts: 26mph
Location:  37.5011°N, 105.046°W
Report Text: KVTP 241112Z AUTO 19011G23KT 140V230 10SM CLR 04/M02 A3044 RMK AO2
Loading
Personal Weather Stations






























Interactive Weather Map
Tropical Storm Tracking
New forecast layout! Learn more

10-Day Weather Forecast

Advertisements
Track Severe Weather on mobile